createdAt,value
2023-02-02T00:01:34.445Z,-0.36
2023-02-02T00:04:03.173Z,-0.47
2023-02-02T00:06:33.197Z,-0.45
2023-02-02T00:09:03.484Z,-0.50
2023-02-02T00:11:32.163Z,-0.31
2023-02-02T00:14:01.096Z,-0.41
2023-02-02T00:16:42.799Z,-0.61
2023-02-02T00:19:15.266Z,-0.47
2023-02-02T00:21:44.710Z,-0.52
2023-02-02T00:24:14.720Z,-0.59
2023-02-02T00:26:46.430Z,-0.53
2023-02-02T00:29:17.988Z,-0.36
2023-02-02T00:31:48.868Z,-0.32
2023-02-02T00:34:18.418Z,-0.34
2023-02-02T00:36:49.398Z,-0.37
2023-02-02T00:39:20.063Z,-0.30
2023-02-02T00:41:49.504Z,-0.32
2023-02-02T00:44:35.481Z,-0.28
2023-02-02T00:47:06.185Z,-0.23
2023-02-02T00:49:35.174Z,-0.17
2023-02-02T00:52:03.796Z,-0.17
2023-02-02T00:54:32.869Z,-0.15
2023-02-02T00:57:01.400Z,-0.26
2023-02-02T00:59:30.084Z,-0.30
2023-02-02T01:01:58.678Z,-0.22
2023-02-02T01:04:29.715Z,-0.23
2023-02-02T01:06:59.052Z,-0.21
2023-02-02T01:09:27.548Z,-0.17
2023-02-02T01:11:56.321Z,-0.27
2023-02-02T01:14:27.292Z,-0.25
2023-02-02T01:16:57.587Z,-0.20
2023-02-02T01:19:29.337Z,-0.16
2023-02-02T01:21:58.089Z,-0.18
2023-02-02T01:24:26.692Z,-0.16
2023-02-02T01:26:55.304Z,-0.18
2023-02-02T01:29:23.978Z,-0.18
2023-02-02T01:31:52.901Z,-0.22
2023-02-02T01:34:21.519Z,-0.21
2023-02-02T01:36:51.650Z,-0.21
2023-02-02T01:39:21.632Z,-0.21
2023-02-02T01:41:50.710Z,-0.26
2023-02-02T01:44:56.325Z,-0.69
2023-02-02T01:47:28.344Z,-0.74
2023-02-02T01:49:57.768Z,-0.93
2023-02-02T01:52:31.017Z,-0.94
2023-02-02T01:55:04.721Z,-0.95
2023-02-02T01:57:40.065Z,-0.89
2023-02-02T02:00:12.909Z,-0.99
2023-02-02T02:02:49.816Z,-0.95
2023-02-02T02:05:27.773Z,-1.08
2023-02-02T02:08:04.422Z,-0.96
2023-02-02T02:10:33.579Z,-0.98
2023-02-02T02:13:02.324Z,-0.97
2023-02-02T02:15:54.523Z,-0.93
2023-02-02T02:18:33.202Z,-1.09
2023-02-02T02:21:52.876Z,-1.06
2023-02-02T02:25:13.972Z,-1.14
2023-02-02T02:28:14.897Z,-1.11
2023-02-02T02:30:59.169Z,-1.12
2023-02-02T02:33:37.032Z,-1.13
2023-02-02T02:36:16.116Z,-1.25
2023-02-02T02:38:52.177Z,-1.30
2023-02-02T02:41:23.722Z,-1.27
2023-02-02T02:43:57.705Z,-1.36
2023-02-02T02:46:28.213Z,-1.34
2023-02-02T02:49:01.578Z,-1.40
2023-02-02T02:51:51.605Z,-1.39
2023-02-02T02:54:43.202Z,-1.34
2023-02-02T02:57:27.468Z,-1.29
2023-02-02T03:00:05.393Z,-1.32
2023-02-02T03:02:42.347Z,-1.41
2023-02-02T03:05:26.103Z,-1.38
2023-02-02T03:08:05.242Z,-1.38
2023-02-02T03:10:35.759Z,-1.48
2023-02-02T03:13:10.032Z,-1.52
2023-02-02T03:15:38.860Z,-1.55
2023-02-02T03:18:07.541Z,-1.60
2023-02-02T03:20:37.717Z,-1.60
2023-02-02T03:23:06.366Z,-1.56
2023-02-02T03:25:35.122Z,-1.55
2023-02-02T03:28:05.731Z,-1.55
2023-02-02T03:30:34.921Z,-1.55
2023-02-02T03:33:03.644Z,-1.55
2023-02-02T03:35:32.152Z,-1.54
2023-02-02T03:38:02.134Z,-1.51
2023-02-02T03:40:31.236Z,-1.57
2023-02-02T03:42:59.785Z,-1.56
2023-02-02T03:45:29.435Z,-1.58
2023-02-02T03:47:58.025Z,-1.59
2023-02-02T03:50:26.633Z,-1.62
2023-02-02T03:52:56.068Z,-1.61
2023-02-02T03:55:26.247Z,-1.63
2023-02-02T03:57:55.140Z,-1.65
2023-02-02T04:00:23.951Z,-1.64
2023-02-02T04:02:52.561Z,-1.63
2023-02-02T04:05:21.176Z,-1.61
2023-02-02T04:07:49.646Z,-1.54
2023-02-02T04:10:19.081Z,-1.58
2023-02-02T04:12:49.100Z,-1.51
2023-02-02T04:15:17.959Z,-1.49
2023-02-02T04:17:46.518Z,-1.48
2023-02-02T04:20:15.074Z,-1.52
2023-02-02T04:22:43.727Z,-1.51
2023-02-02T04:25:12.518Z,-1.55
2023-02-02T04:27:41.223Z,-1.47
2023-02-02T04:30:13.063Z,-1.57
2023-02-02T04:32:41.611Z,-1.55
2023-02-02T04:35:10.580Z,-1.58
2023-02-02T04:37:39.187Z,-1.59
2023-02-02T04:40:08.922Z,-1.57
2023-02-02T04:42:37.528Z,-1.55
2023-02-02T04:45:06.949Z,-1.45
2023-02-02T04:47:37.004Z,-1.54
2023-02-02T04:50:06.353Z,-1.56
2023-02-02T04:52:35.339Z,-1.55
2023-02-02T04:55:04.099Z,-1.59
2023-02-02T04:57:32.719Z,-1.56
2023-02-02T05:00:01.211Z,-1.59
2023-02-02T05:02:29.850Z,-1.53
2023-02-02T05:04:59.837Z,-1.49
2023-02-02T05:07:28.361Z,-1.53
2023-02-02T05:09:56.905Z,-1.57
2023-02-02T05:12:25.559Z,-1.52
2023-02-02T05:14:53.996Z,-1.54
2023-02-02T05:17:22.527Z,-1.49
2023-02-02T05:19:51.075Z,-1.46
2023-02-02T05:22:21.112Z,-1.44
2023-02-02T05:24:49.566Z,-1.32
2023-02-02T05:27:18.154Z,-1.31
2023-02-02T05:29:48.720Z,-1.35
2023-02-02T05:32:17.419Z,-1.40
2023-02-02T05:34:45.928Z,-1.42
2023-02-02T05:37:14.626Z,-1.38
2023-02-02T05:39:44.629Z,-1.38
2023-02-02T05:42:13.140Z,-1.47
2023-02-02T05:44:41.656Z,-1.41
2023-02-02T05:47:10.983Z,-1.49
2023-02-02T05:49:39.432Z,-1.47
2023-02-02T05:52:09.518Z,-1.52
2023-02-02T05:54:38.042Z,-1.57
2023-02-02T05:57:07.946Z,-1.53
2023-02-02T05:59:36.498Z,-1.51
2023-02-02T06:02:05.061Z,-1.55
2023-02-02T06:04:33.588Z,-1.54
2023-02-02T06:07:02.201Z,-1.53
2023-02-02T06:09:30.698Z,-1.53
2023-02-02T06:11:59.245Z,-1.57
2023-02-02T06:14:29.474Z,-1.55
2023-02-02T06:16:58.260Z,-1.53
2023-02-02T06:19:27.010Z,-1.55
2023-02-02T06:21:55.607Z,-1.57
2023-02-02T06:24:24.691Z,-1.60
2023-02-02T06:26:53.323Z,-1.62
2023-02-02T06:29:21.930Z,-1.56
2023-02-02T06:31:52.093Z,-1.61
2023-02-02T06:34:20.903Z,-1.62
2023-02-02T06:36:49.461Z,-1.61
2023-02-02T06:39:18.003Z,-1.64
2023-02-02T06:41:48.486Z,-1.61
2023-02-02T06:44:17.043Z,-1.61
2023-02-02T06:46:45.382Z,-1.60
2023-02-02T06:49:15.243Z,-1.57
2023-02-02T06:51:46.033Z,-1.54
2023-02-02T06:54:14.838Z,-1.49
2023-02-02T06:56:44.040Z,-1.48
2023-02-02T06:59:12.548Z,-1.35
2023-02-02T07:01:40.970Z,-1.24
2023-02-02T07:04:09.473Z,-1.27
2023-02-02T07:06:41.198Z,-1.29
2023-02-02T07:09:09.810Z,-1.23
2023-02-02T07:11:40.760Z,-1.28
2023-02-02T07:14:12.184Z,-1.04
2023-02-02T07:16:40.640Z,-1.21
2023-02-02T07:19:09.550Z,-1.01
2023-02-02T07:21:39.593Z,-1.13
2023-02-02T07:24:09.133Z,-1.16
2023-02-02T07:26:37.687Z,-1.15
2023-02-02T07:29:06.935Z,-1.21
2023-02-02T07:31:36.784Z,-1.26
2023-02-02T07:34:05.847Z,-1.13
2023-02-02T07:36:34.637Z,-1.15
2023-02-02T07:39:05.962Z,-1.14
2023-02-02T07:41:36.540Z,-1.14
2023-02-02T07:44:06.315Z,-1.08
2023-02-02T07:46:35.056Z,-1.11
2023-02-02T07:49:04.635Z,-1.03
2023-02-02T07:51:33.197Z,-0.96
2023-02-02T07:54:01.768Z,-1.02
2023-02-02T07:56:31.855Z,-1.15
2023-02-02T07:59:00.819Z,-1.15
2023-02-02T08:01:30.301Z,-1.14
2023-02-02T08:04:01.739Z,-1.16
2023-02-02T08:06:32.797Z,-1.12
2023-02-02T08:09:02.423Z,-1.12
2023-02-02T08:11:33.112Z,-1.09
2023-02-02T08:14:02.913Z,-1.15
2023-02-02T08:16:33.381Z,-1.16
2023-02-02T08:19:02.751Z,-1.16
2023-02-02T08:21:33.693Z,-1.06
2023-02-02T08:24:04.743Z,-1.00
2023-02-02T08:26:35.008Z,-0.99
2023-02-02T08:29:07.538Z,-1.02
2023-02-02T08:31:38.125Z,-0.96
2023-02-02T08:34:07.094Z,-0.99
2023-02-02T08:36:36.513Z,-1.03
2023-02-02T08:39:07.247Z,-0.87
2023-02-02T08:41:37.927Z,-0.97
2023-02-02T08:44:09.369Z,-0.78
2023-02-02T08:46:40.245Z,-0.79
2023-02-02T08:49:11.105Z,-0.82
2023-02-02T08:51:39.826Z,-0.83
2023-02-02T08:54:08.411Z,-0.90
2023-02-02T08:56:38.595Z,-0.82
2023-02-02T08:59:08.013Z,-0.96
2023-02-02T09:01:37.024Z,-1.04
2023-02-02T09:04:07.112Z,-0.93
2023-02-02T09:06:37.263Z,-0.89
2023-02-02T09:09:07.711Z,-0.84
2023-02-02T09:11:38.107Z,-0.82
2023-02-02T09:14:07.646Z,-0.84
2023-02-02T09:16:37.163Z,-0.83
2023-02-02T09:19:06.931Z,-0.74
2023-02-02T09:21:37.485Z,-0.60
2023-02-02T09:24:11.325Z,-0.61
2023-02-02T09:26:41.922Z,-0.70
2023-02-02T09:29:14.125Z,-0.72
2023-02-02T09:31:43.468Z,-0.70
2023-02-02T09:34:13.854Z,-0.57
2023-02-02T09:36:43.937Z,-0.67
2023-02-02T09:39:15.206Z,-0.79
2023-02-02T09:42:20.287Z,-0.73
2023-02-02T09:45:10.049Z,-0.73
2023-02-02T09:47:55.148Z,-0.79
2023-02-02T09:50:43.498Z,-0.70
2023-02-02T09:53:25.729Z,-0.79
2023-02-02T09:55:57.287Z,-0.85
2023-02-02T09:58:32.599Z,-0.89
2023-02-02T10:01:06.611Z,-0.90
2023-02-02T10:03:39.298Z,-0.83
2023-02-02T10:06:17.997Z,-0.77
2023-02-02T10:08:52.440Z,-0.69
2023-02-02T10:11:33.050Z,-0.69
2023-02-02T10:14:09.182Z,-0.71
2023-02-02T10:16:41.164Z,-0.86
2023-02-02T10:19:13.857Z,-0.83
2023-02-02T10:21:48.080Z,-0.80
2023-02-02T10:24:21.346Z,-0.78
2023-02-02T10:26:52.142Z,-0.77
2023-02-02T10:29:48.043Z,-0.83
2023-02-02T10:32:24.047Z,-0.82
2023-02-02T10:35:14.637Z,-0.90
2023-02-02T10:37:51.849Z,-0.84
2023-02-02T10:40:34.505Z,-0.92
2023-02-02T10:43:51.308Z,-0.98
2023-02-02T10:46:25.771Z,-1.04
2023-02-02T10:49:12.656Z,-0.95
2023-02-02T10:51:41.672Z,-1.04
2023-02-02T10:54:27.535Z,-1.03
2023-02-02T10:57:02.214Z,-0.98
2023-02-02T10:59:34.379Z,-1.00
2023-02-02T11:02:20.120Z,-0.92
2023-02-02T11:05:07.083Z,-1.00
2023-02-02T11:07:37.585Z,-1.00
2023-02-02T11:10:06.624Z,-1.03
2023-02-02T11:12:38.237Z,-1.03
2023-02-02T11:15:10.908Z,-1.07
2023-02-02T11:17:41.177Z,-1.03
2023-02-02T11:20:25.830Z,-0.93
2023-02-02T11:23:08.469Z,-1.00
2023-02-02T11:25:39.976Z,-1.00
2023-02-02T11:28:19.167Z,-1.02
2023-02-02T11:30:52.700Z,-1.02
2023-02-02T11:33:29.451Z,-1.11
2023-02-02T11:35:59.914Z,-1.05
2023-02-02T11:38:28.963Z,-0.96
2023-02-02T11:41:04.045Z,-1.05
2023-02-02T11:43:36.568Z,-1.08
2023-02-02T11:46:08.174Z,-1.10
2023-02-02T11:48:40.373Z,-1.07
2023-02-02T11:51:09.689Z,-1.00
2023-02-02T11:53:44.226Z,-1.02
2023-02-02T11:56:21.336Z,-0.90
2023-02-02T11:58:51.000Z,-0.96
2023-02-02T12:01:26.353Z,-1.10
2023-02-02T12:03:58.067Z,-1.14
2023-02-02T12:06:28.617Z,-1.03
2023-02-02T12:09:01.533Z,-1.04
2023-02-02T12:11:41.967Z,-1.13
2023-02-02T12:14:26.489Z,-1.09
2023-02-02T12:17:07.571Z,-1.11
2023-02-02T12:19:57.817Z,-1.06
2023-02-02T12:22:42.783Z,-1.14
2023-02-02T12:25:36.962Z,-1.17
2023-02-02T12:28:16.734Z,-1.14
2023-02-02T12:30:56.559Z,-1.08
2023-02-02T12:33:36.611Z,-1.06
2023-02-02T12:36:30.133Z,-1.12
2023-02-02T12:39:17.845Z,-1.18
2023-02-02T12:42:13.657Z,-1.19
2023-02-02T12:44:53.691Z,-1.16
2023-02-02T12:47:29.490Z,-1.22
2023-02-02T12:50:31.429Z,-1.20
2023-02-02T12:53:27.568Z,-1.19
2023-02-02T12:56:05.969Z,-1.14
2023-02-02T12:58:40.465Z,-1.16
2023-02-02T13:01:20.350Z,-1.18
2023-02-02T13:04:08.024Z,-1.15
2023-02-02T13:09:52.791Z,-1.12
2023-02-02T13:12:25.266Z,-1.18
2023-02-02T13:14:57.780Z,-1.22
2023-02-02T13:17:30.901Z,-1.12
2023-02-02T13:20:04.675Z,-1.12
2023-02-02T13:22:37.697Z,-1.23
2023-02-02T13:25:16.129Z,-1.24
2023-02-02T13:27:45.600Z,-1.24
2023-02-02T13:30:25.083Z,-1.23
2023-02-02T13:32:56.417Z,-1.20
2023-02-02T13:35:30.051Z,-1.26
2023-02-02T13:38:06.254Z,-1.25
2023-02-02T13:40:39.748Z,-1.29
2023-02-02T13:43:24.012Z,-1.28
2023-02-02T13:46:02.404Z,-1.25
2023-02-02T13:48:40.109Z,-1.32
2023-02-02T13:51:27.375Z,-1.30
2023-02-02T13:54:32.433Z,-1.34
2023-02-02T13:57:13.533Z,-1.35
2023-02-02T14:00:02.142Z,-1.38
2023-02-02T14:02:41.208Z,-1.35
2023-02-02T14:05:22.123Z,-1.36
2023-02-02T14:07:58.211Z,-1.35
2023-02-02T14:10:31.772Z,-1.35
2023-02-02T14:13:33.451Z,-1.35
2023-02-02T14:16:06.738Z,-1.36
2023-02-02T14:19:03.083Z,-1.37
2023-02-02T14:22:03.853Z,-1.41
2023-02-02T14:24:50.168Z,-1.43
2023-02-02T14:27:42.331Z,-1.43
2023-02-02T14:30:27.133Z,-1.53
2023-02-02T14:33:15.955Z,-1.54
2023-02-02T14:36:03.013Z,-1.50
2023-02-02T14:39:12.510Z,-1.55
2023-02-02T14:42:19.731Z,-1.59
2023-02-02T14:45:28.136Z,-1.56
2023-02-02T14:48:00.405Z,-1.63
2023-02-02T14:50:42.132Z,-1.62
2023-02-02T14:53:23.547Z,-1.68
2023-02-02T14:55:59.526Z,-1.68
2023-02-02T14:58:32.922Z,-1.67
2023-02-02T15:01:14.857Z,-1.68
2023-02-02T15:03:56.238Z,-1.66
2023-02-02T15:06:42.915Z,-1.69
2023-02-02T15:09:37.686Z,-1.73
2023-02-02T15:12:21.795Z,-1.73
2023-02-02T15:14:57.523Z,-1.78
2023-02-02T15:17:35.592Z,-1.71
2023-02-02T15:20:13.979Z,-1.75
2023-02-02T15:22:47.830Z,-1.75
2023-02-02T15:25:23.339Z,-1.74
2023-02-02T15:28:00.352Z,-1.77
2023-02-02T15:30:33.733Z,-1.78
2023-02-02T15:33:13.332Z,-1.79
2023-02-02T15:35:42.690Z,-1.82
2023-02-02T15:38:17.502Z,-1.79
2023-02-02T15:40:46.287Z,-1.82
2023-02-02T15:43:17.858Z,-1.79
2023-02-02T15:45:49.067Z,-1.79
2023-02-02T15:48:25.380Z,-1.76
2023-02-02T15:50:58.371Z,-1.81
2023-02-02T15:53:29.128Z,-1.83
2023-02-02T15:55:58.558Z,-1.85
2023-02-02T15:58:30.356Z,-1.85
2023-02-02T16:01:07.392Z,-1.87
2023-02-02T16:03:44.368Z,-1.79
2023-02-02T16:06:13.175Z,-1.81
2023-02-02T16:08:42.396Z,-1.84
2023-02-02T16:11:13.736Z,-1.86
2023-02-02T16:13:44.069Z,-1.92
2023-02-02T16:16:27.322Z,-1.95
2023-02-02T16:19:20.844Z,-1.96
2023-02-02T16:21:55.139Z,-1.91
2023-02-02T16:24:26.211Z,-1.87
2023-02-02T16:26:58.190Z,-1.91
2023-02-02T16:29:28.373Z,-1.87
2023-02-02T16:31:58.578Z,-1.90
2023-02-02T16:34:47.378Z,-1.89
2023-02-02T16:37:20.499Z,-1.93
2023-02-02T16:39:49.248Z,-1.97
2023-02-02T16:42:26.020Z,-1.93
2023-02-02T16:44:55.698Z,-1.96
2023-02-02T16:47:39.074Z,-2.02
2023-02-02T16:50:29.916Z,-2.01
2023-02-02T16:53:04.038Z,-2.06
2023-02-02T16:55:49.471Z,-2.11
2023-02-02T16:58:22.975Z,-2.13
2023-02-02T17:01:13.653Z,-2.17
2023-02-02T17:03:51.708Z,-2.17
2023-02-02T17:06:41.667Z,-2.08
2023-02-02T17:09:35.980Z,-2.14
2023-02-02T17:12:14.316Z,-2.19
2023-02-02T17:14:53.562Z,-2.21
2023-02-02T17:17:22.402Z,-2.25
2023-02-02T17:19:51.224Z,-2.25
2023-02-02T17:22:24.571Z,-2.24
2023-02-02T17:24:53.955Z,-2.30
2023-02-02T17:27:28.945Z,-2.22
2023-02-02T17:29:58.249Z,-2.23
2023-02-02T17:32:27.104Z,-2.26
2023-02-02T17:34:55.924Z,-2.35
2023-02-02T17:37:25.981Z,-2.29
2023-02-02T17:39:54.461Z,-2.47
2023-02-02T17:42:26.602Z,-2.43
2023-02-02T17:44:55.208Z,-2.46
2023-02-02T17:47:23.945Z,-2.39
2023-02-02T17:49:52.492Z,-2.45
2023-02-02T17:52:21.001Z,-2.54
2023-02-02T17:54:51.223Z,-2.53
2023-02-02T17:57:20.263Z,-2.52
2023-02-02T17:59:48.768Z,-2.51
2023-02-02T18:02:18.364Z,-2.63
2023-02-02T18:04:46.833Z,-2.65
2023-02-02T18:07:15.955Z,-2.60
2023-02-02T18:09:44.340Z,-2.62
2023-02-02T18:12:14.373Z,-2.79
2023-02-02T18:14:42.917Z,-2.70
2023-02-02T18:17:11.396Z,-2.75
2023-02-02T18:19:45.048Z,-2.74
2023-02-02T18:22:13.861Z,-2.66
2023-02-02T18:24:42.738Z,-2.69
2023-02-02T18:27:11.218Z,-2.81
2023-02-02T18:29:41.137Z,-2.85
2023-02-02T18:32:09.985Z,-2.84
2023-02-02T18:34:38.627Z,-2.88
2023-02-02T18:37:07.018Z,-2.86
2023-02-02T18:39:35.731Z,-2.72
2023-02-02T18:42:04.279Z,-2.80
2023-02-02T18:44:41.177Z,-2.84
2023-02-02T18:47:11.077Z,-2.75
2023-02-02T18:49:39.512Z,-2.80
2023-02-02T18:52:08.236Z,-2.80
2023-02-02T18:54:36.970Z,-2.79
2023-02-02T18:57:05.461Z,-2.76
2023-02-02T18:59:36.148Z,-2.76
2023-02-02T19:02:04.640Z,-2.82
2023-02-02T19:04:35.211Z,-2.88
2023-02-02T19:07:20.932Z,-2.88
2023-02-02T19:09:49.436Z,-2.91
2023-02-02T19:12:17.948Z,-2.91
2023-02-02T19:14:46.802Z,-2.89
2023-02-02T19:17:22.358Z,-2.93
2023-02-02T19:19:52.397Z,-2.91
2023-02-02T19:23:15.043Z,-2.92
2023-02-02T19:26:09.140Z,-2.93
2023-02-02T19:28:40.914Z,-2.96
2023-02-02T19:31:15.392Z,-2.93
2023-02-02T19:33:47.364Z,-2.94
2023-02-02T19:36:19.313Z,-3.00
2023-02-02T19:38:49.155Z,-3.00
2023-02-02T19:41:21.052Z,-3.04
2023-02-02T19:43:50.336Z,-3.01
2023-02-02T19:46:22.599Z,-3.04
2023-02-02T19:48:54.460Z,-3.04
2023-02-02T19:51:41.992Z,-3.05
2023-02-02T19:54:29.788Z,-3.08
2023-02-02T19:57:00.318Z,-2.99
2023-02-02T19:59:35.980Z,-3.07
2023-02-02T20:02:39.334Z,-3.07
2023-02-02T20:05:18.517Z,-3.11
2023-02-02T20:07:49.408Z,-3.17
2023-02-02T20:10:22.607Z,-3.13
2023-02-02T20:12:51.997Z,-3.18
2023-02-02T20:15:30.031Z,-3.13
2023-02-02T20:18:01.445Z,-3.11
2023-02-02T20:20:35.937Z,-3.15
2023-02-02T20:23:18.521Z,-3.29
2023-02-02T20:25:46.959Z,-3.26
2023-02-02T20:28:31.407Z,-3.22
2023-02-02T20:30:59.915Z,-3.23
2023-02-02T20:33:28.324Z,-3.20
2023-02-02T20:35:57.225Z,-3.32
2023-02-02T20:38:30.066Z,-3.27
2023-02-02T20:40:59.316Z,-3.20
2023-02-02T20:43:27.792Z,-3.25
2023-02-02T20:45:56.277Z,-3.29
2023-02-02T20:48:25.809Z,-3.37
2023-02-02T20:50:54.342Z,-3.30
2023-02-02T20:53:23.110Z,-3.27
2023-02-02T20:55:57.388Z,-3.26
2023-02-02T20:58:26.552Z,-3.30
2023-02-02T21:00:55.129Z,-3.31
2023-02-02T21:03:23.688Z,-3.23
2023-02-02T21:05:52.140Z,-3.33
2023-02-02T21:08:20.574Z,-3.38
2023-02-02T21:10:48.973Z,-3.47
2023-02-02T21:13:18.860Z,-3.54
2023-02-02T21:15:47.272Z,-3.53
2023-02-02T21:18:15.910Z,-3.56
2023-02-02T21:20:44.365Z,-3.65
2023-02-02T21:23:12.784Z,-3.65
2023-02-02T21:25:41.361Z,-3.73
2023-02-02T21:28:09.689Z,-3.81
2023-02-02T21:30:39.826Z,-3.85
2023-02-02T21:33:08.402Z,-3.94
2023-02-02T21:35:36.809Z,-3.95
2023-02-02T21:38:11.835Z,-4.02
2023-02-02T21:40:41.133Z,-4.04
2023-02-02T21:43:15.864Z,-4.20
2023-02-02T21:45:49.782Z,-4.36
2023-02-02T21:48:42.124Z,-4.29
2023-02-02T21:51:23.085Z,-4.35
2023-02-02T21:53:51.814Z,-4.41
2023-02-02T21:56:27.535Z,-4.37
2023-02-02T21:58:59.496Z,-4.39
2023-02-02T22:01:34.985Z,-4.47
2023-02-02T22:04:03.562Z,-4.46
2023-02-02T22:06:36.277Z,-4.47
2023-02-02T22:09:15.755Z,-4.77
2023-02-02T22:11:49.158Z,-4.72
2023-02-02T22:14:28.607Z,-4.65
2023-02-02T22:17:00.400Z,-4.64
2023-02-02T22:19:32.935Z,-4.75
2023-02-02T22:22:20.363Z,-4.77
2023-02-02T22:24:57.740Z,-4.84
2023-02-02T22:27:28.586Z,-4.82
2023-02-02T22:30:12.205Z,-4.72
2023-02-02T22:32:42.248Z,-4.94
2023-02-02T22:35:10.716Z,-4.93
2023-02-02T22:37:39.197Z,-5.03
2023-02-02T22:40:08.701Z,-5.10
2023-02-02T22:42:37.538Z,-5.17
2023-02-02T22:45:06.983Z,-5.14
2023-02-02T22:47:35.619Z,-5.41
2023-02-02T22:50:06.122Z,-5.28
2023-02-02T22:52:34.829Z,-5.33
2023-02-02T22:55:03.392Z,-5.52
2023-02-02T22:57:31.982Z,-5.56
2023-02-02T23:00:00.441Z,-5.60
2023-02-02T23:02:29.003Z,-5.70
2023-02-02T23:04:57.491Z,-5.71
2023-02-02T23:07:27.636Z,-5.66
2023-02-02T23:09:56.190Z,-5.62
2023-02-02T23:12:24.777Z,-6.06
2023-02-02T23:14:53.307Z,-6.26
2023-02-02T23:17:21.903Z,-6.19
2023-02-02T23:19:50.381Z,-6.09
2023-02-02T23:22:18.881Z,-6.01
2023-02-02T23:24:49.094Z,-6.12
2023-02-02T23:27:17.589Z,-6.25
2023-02-02T23:29:45.984Z,-6.18
2023-02-02T23:32:14.506Z,-6.04
2023-02-02T23:34:43.054Z,-6.03
2023-02-02T23:37:11.743Z,-5.81
2023-02-02T23:39:40.322Z,-5.70
2023-02-02T23:42:10.591Z,-5.49
2023-02-02T23:44:39.137Z,-5.36
2023-02-02T23:47:08.251Z,-5.26
2023-02-02T23:49:37.438Z,-5.19
2023-02-02T23:52:06.396Z,-5.06
2023-02-02T23:54:35.431Z,-4.98
2023-02-02T23:57:04.302Z,-4.88
2023-02-02T23:59:34.364Z,-4.87
